Tull, Arkansas
Current Conditions -  °F | °C
As of 6:53 AM on Saturday 01 Nov 2014 (Local Time) from KLIT Reporting Station
Clear Clear  
Wind Chill: 29°   Ceiling: Unl
Heat Index: 35°   Visibility: 10mi
Dew Point: 23°   Wind: 8mph
Humidity: 61%   Direction: 350°N
Pressure: 30.45"   Gusts: NA
Location:  34.5666°N, 92.583°W
Report Text: KLIT 011153Z 35007KT 10SM CLR 02/M05 A3045 RMK AO2 SLP316 T00171050 10039 20011 51017
Loading
Personal Weather Stations






























Interactive Weather Map
Tropical Storm Tracking
New forecast layout! Learn more

10-Day Weather Forecast

Advertisements
Track Severe Weather on mobile